createdAt,value
2022-10-05T00:00:51.329Z,3.20
2022-10-05T00:04:17.057Z,3.40
2022-10-05T00:07:21.258Z,2.95
2022-10-05T00:10:23.045Z,3.10
2022-10-05T00:13:30.046Z,3.10
2022-10-05T00:16:31.756Z,3.20
2022-10-05T00:19:44.055Z,3.60
2022-10-05T00:22:46.413Z,3.50
2022-10-05T00:25:48.329Z,3.50
2022-10-05T00:28:50.410Z,3.63
2022-10-05T00:31:52.393Z,3.70
2022-10-05T00:34:54.374Z,3.35
2022-10-05T00:37:56.462Z,3.10
2022-10-05T00:41:27.908Z,3.10
2022-10-05T00:44:55.071Z,3.42
2022-10-05T00:48:22.248Z,3.08
2022-10-05T00:51:30.029Z,4.57
2022-10-05T00:54:38.077Z,3.67
2022-10-05T00:58:08.401Z,3.85
2022-10-05T01:01:51.945Z,3.08
2022-10-05T01:05:22.276Z,3.10
2022-10-05T01:08:42.905Z,3.42
2022-10-05T01:12:03.052Z,3.80
2022-10-05T01:15:36.049Z,3.30
2022-10-05T01:19:04.645Z,3.47
2022-10-05T01:22:38.538Z,3.58
2022-10-05T01:26:25.907Z,3.35
2022-10-05T01:29:47.936Z,3.42
2022-10-05T01:33:28.590Z,3.30
2022-10-05T01:36:55.446Z,3.05
2022-10-05T01:40:04.905Z,3.80
2022-10-05T01:43:22.976Z,3.80
2022-10-05T01:46:34.165Z,3.55
2022-10-05T01:49:53.428Z,3.70
2022-10-05T01:53:19.633Z,3.50
2022-10-05T01:56:42.579Z,3.30
2022-10-05T02:00:03.267Z,3.35
2022-10-05T02:06:32.925Z,3.47
2022-10-05T02:09:43.688Z,3.42
2022-10-05T02:12:48.993Z,3.85
2022-10-05T02:16:05.795Z,3.83
2022-10-05T02:19:21.496Z,3.50
2022-10-05T02:22:35.641Z,3.22
2022-10-05T02:25:42.760Z,3.65
2022-10-05T02:28:51.364Z,3.58
2022-10-05T02:32:14.474Z,3.88
2022-10-05T02:35:18.728Z,3.97
2022-10-05T02:38:57.516Z,3.78
2022-10-05T02:42:22.233Z,3.80
2022-10-05T02:45:34.679Z,3.60
2022-10-05T02:48:55.123Z,3.63
2022-10-05T02:52:29.680Z,3.70
2022-10-05T02:56:11.185Z,3.70
2022-10-05T02:59:47.749Z,3.72
2022-10-05T03:03:14.976Z,3.35
2022-10-05T03:06:27.308Z,3.85
2022-10-05T03:09:37.474Z,3.80
2022-10-05T03:13:02.227Z,3.95
2022-10-05T03:16:23.138Z,4.07
2022-10-05T03:19:55.638Z,3.97
2022-10-05T03:23:01.374Z,3.70
2022-10-05T03:26:22.770Z,3.92
2022-10-05T03:29:40.993Z,4.38
2022-10-05T03:33:03.441Z,3.78
2022-10-05T03:36:23.082Z,4.15
2022-10-05T03:39:47.020Z,4.20
2022-10-05T03:43:21.848Z,4.00
2022-10-05T03:46:42.362Z,4.30
2022-10-05T03:50:07.196Z,4.07
2022-10-05T03:53:19.808Z,4.20
2022-10-05T03:56:58.339Z,4.15
2022-10-05T04:00:07.106Z,3.80
2022-10-05T04:03:47.649Z,4.28
2022-10-05T04:06:52.184Z,4.20
2022-10-05T04:09:56.047Z,4.07
2022-10-05T04:13:16.375Z,4.18
2022-10-05T04:16:20.208Z,4.32
2022-10-05T04:19:24.713Z,4.32
2022-10-05T04:22:59.348Z,4.43
2022-10-05T04:26:33.245Z,4.40
2022-10-05T04:30:08.771Z,4.30
2022-10-05T04:33:16.030Z,4.63
2022-10-05T04:36:36.303Z,4.10
2022-10-05T04:39:56.313Z,4.40
2022-10-05T04:43:40.936Z,4.50
2022-10-05T04:47:19.643Z,4.30
2022-10-05T04:50:44.325Z,4.25
2022-10-05T04:54:05.615Z,4.00
2022-10-05T04:57:14.074Z,4.45
2022-10-05T05:00:22.634Z,4.22
2022-10-05T05:03:47.252Z,4.40
2022-10-05T05:07:11.099Z,4.13
2022-10-05T05:10:34.928Z,4.40
2022-10-05T05:13:47.627Z,4.60
2022-10-05T05:17:17.739Z,4.55
2022-10-05T05:20:41.180Z,4.33
2022-10-05T05:24:20.829Z,4.68
2022-10-05T05:27:39.585Z,4.82
2022-10-05T05:30:42.932Z,4.30
2022-10-05T05:34:03.348Z,4.57
2022-10-05T05:37:35.790Z,5.45
2022-10-05T05:40:51.675Z,5.53
2022-10-05T05:44:12.359Z,5.10
2022-10-05T05:47:40.606Z,5.35
2022-10-05T05:50:43.275Z,4.78
2022-10-05T05:53:50.628Z,4.88
2022-10-05T05:57:28.887Z,4.90
2022-10-05T06:00:39.549Z,5.60
2022-10-05T06:03:49.817Z,4.55
2022-10-05T06:06:54.235Z,5.47
2022-10-05T06:10:34.502Z,5.05
2022-10-05T06:13:42.499Z,4.70
2022-10-05T06:16:53.699Z,5.60
2022-10-05T06:20:03.915Z,5.38
2022-10-05T06:23:32.565Z,5.72
2022-10-05T06:26:40.428Z,5.40
2022-10-05T06:30:05.013Z,4.60
2022-10-05T06:33:48.541Z,5.50
2022-10-05T06:37:11.761Z,5.03
2022-10-05T06:41:05.755Z,5.28
2022-10-05T06:44:32.464Z,5.15
2022-10-05T06:48:24.096Z,5.55
2022-10-05T06:52:23.151Z,4.97
2022-10-05T06:55:49.613Z,5.07
2022-10-05T06:58:57.927Z,4.82
2022-10-05T07:02:35.466Z,5.10
2022-10-05T07:05:46.198Z,4.85
2022-10-05T07:09:21.278Z,4.90
2022-10-05T07:16:45.732Z,4.80
2022-10-05T07:19:49.416Z,4.72
2022-10-05T07:23:41.946Z,4.95
2022-10-05T07:26:50.992Z,4.85
2022-10-05T07:30:01.426Z,5.43
2022-10-05T07:33:24.668Z,4.80
2022-10-05T07:37:09.657Z,5.18
2022-10-05T07:40:15.691Z,5.60
2022-10-05T07:44:00.869Z,4.95
2022-10-05T07:47:18.245Z,4.72
2022-10-05T07:50:32.160Z,5.47
2022-10-05T07:53:47.306Z,5.47
2022-10-05T07:57:00.774Z,4.97
2022-10-05T08:00:05.826Z,5.07
2022-10-05T08:03:24.158Z,5.90
2022-10-05T08:06:45.821Z,5.20
2022-10-05T08:10:03.340Z,5.88
2022-10-05T08:13:19.626Z,5.18
2022-10-05T08:16:26.709Z,5.15
2022-10-05T08:19:48.609Z,5.57
2022-10-05T08:23:16.031Z,5.63
2022-10-05T08:26:48.619Z,4.43
2022-10-05T08:30:10.537Z,5.43
2022-10-05T08:33:17.214Z,5.22
2022-10-05T08:36:29.142Z,5.20
2022-10-05T08:39:38.721Z,5.35
2022-10-05T08:42:58.956Z,4.80
2022-10-05T08:46:38.178Z,4.95
2022-10-05T08:50:08.185Z,4.93
2022-10-05T08:53:47.047Z,6.78
2022-10-05T08:57:11.532Z,4.82
2022-10-05T09:00:51.026Z,5.25
2022-10-05T09:03:59.961Z,4.75
2022-10-05T09:07:41.756Z,4.47
2022-10-05T09:11:03.822Z,4.82
2022-10-05T09:14:42.046Z,4.68
2022-10-05T09:18:06.064Z,4.60
2022-10-05T09:21:25.022Z,4.93
2022-10-05T09:24:48.686Z,4.63
2022-10-05T09:28:04.883Z,4.35
2022-10-05T09:31:22.949Z,4.18
2022-10-05T09:34:52.000Z,4.78
2022-10-05T09:38:31.665Z,4.40
2022-10-05T09:42:01.471Z,4.43
2022-10-05T09:45:40.431Z,4.20
2022-10-05T09:49:13.060Z,4.00
2022-10-05T09:52:51.871Z,3.95
2022-10-05T09:56:12.745Z,3.95
2022-10-05T09:59:56.589Z,3.60
2022-10-05T10:03:13.366Z,3.15
2022-10-05T10:06:21.449Z,3.35
2022-10-05T10:10:00.924Z,3.75
2022-10-05T10:13:17.008Z,3.95
2022-10-05T10:16:30.581Z,3.15
2022-10-05T10:20:06.926Z,3.70
2022-10-05T10:23:08.645Z,3.50
2022-10-05T10:26:11.872Z,3.60
2022-10-05T10:29:49.099Z,4.20
2022-10-05T10:33:13.723Z,3.38
2022-10-05T10:37:01.901Z,3.45
2022-10-05T10:40:36.980Z,3.55
2022-10-05T10:44:11.141Z,3.80
2022-10-05T10:47:33.801Z,3.80
2022-10-05T10:50:50.562Z,4.18
2022-10-05T10:54:12.192Z,3.75
2022-10-05T10:57:40.139Z,3.50
2022-10-05T11:01:13.302Z,3.58
2022-10-05T11:04:36.451Z,3.03
2022-10-05T11:08:07.646Z,3.38
2022-10-05T11:11:09.155Z,3.10
2022-10-05T11:14:29.390Z,3.08
2022-10-05T11:17:52.855Z,3.08
2022-10-05T11:21:02.633Z,2.78
2022-10-05T11:24:25.791Z,3.17
2022-10-05T11:27:35.159Z,3.00
2022-10-05T11:31:06.163Z,2.83
2022-10-05T11:34:32.774Z,3.17
2022-10-05T11:37:57.575Z,3.20
2022-10-05T11:41:28.011Z,2.90
2022-10-05T11:45:08.630Z,3.28
2022-10-05T11:51:28.480Z,3.17
2022-10-05T11:54:58.656Z,2.88
2022-10-05T11:58:09.593Z,2.92
2022-10-05T12:01:18.084Z,3.00
2022-10-05T12:04:42.921Z,3.00
2022-10-05T12:08:15.625Z,3.47
2022-10-05T12:11:58.074Z,3.08
2022-10-05T12:15:23.836Z,2.75
2022-10-05T12:19:04.671Z,2.80
2022-10-05T12:22:21.804Z,3.00
2022-10-05T12:26:01.364Z,2.60
2022-10-05T12:29:15.194Z,2.90
2022-10-05T12:32:23.470Z,2.45
2022-10-05T12:35:47.475Z,2.22
2022-10-05T12:39:29.533Z,2.17
2022-10-05T12:42:57.505Z,2.10
2022-10-05T12:46:29.594Z,2.17
2022-10-05T12:50:01.925Z,2.20
2022-10-05T12:53:34.373Z,2.30
2022-10-05T12:56:42.562Z,2.33
2022-10-05T13:00:13.637Z,1.90
2022-10-05T13:03:25.266Z,2.00
2022-10-05T13:06:51.319Z,1.90
2022-10-05T13:09:53.066Z,1.80
2022-10-05T13:12:57.722Z,1.80
2022-10-05T13:16:34.545Z,1.73
2022-10-05T13:19:46.942Z,1.83
2022-10-05T13:23:14.339Z,1.58
2022-10-05T13:26:16.272Z,1.60
2022-10-05T13:29:56.996Z,1.70
2022-10-05T13:36:10.401Z,1.77
2022-10-05T13:39:52.348Z,1.88
2022-10-05T13:43:06.658Z,1.65
2022-10-05T13:46:36.481Z,1.80
2022-10-05T13:49:59.234Z,1.83
2022-10-05T13:53:24.371Z,1.50
2022-10-05T13:56:31.096Z,1.63
2022-10-05T13:59:38.672Z,1.52
2022-10-05T14:02:44.082Z,1.40
2022-10-05T14:05:56.363Z,1.85
2022-10-05T14:08:58.476Z,1.73
2022-10-05T14:12:13.992Z,1.52
2022-10-05T14:15:29.454Z,1.70
2022-10-05T14:18:36.746Z,1.77
2022-10-05T14:22:11.816Z,1.52
2022-10-05T14:25:17.981Z,1.67
2022-10-05T14:28:32.320Z,1.58
2022-10-05T14:31:36.897Z,1.48
2022-10-05T14:34:56.490Z,1.67
2022-10-05T14:38:00.774Z,2.00
2022-10-05T14:41:12.203Z,2.20
2022-10-05T14:44:13.966Z,2.00
2022-10-05T14:47:22.791Z,2.03
2022-10-05T14:50:26.415Z,2.40
2022-10-05T14:53:43.974Z,2.17
2022-10-05T14:56:53.262Z,2.50
2022-10-05T15:00:14.355Z,2.50
2022-10-05T15:03:37.780Z,2.55
2022-10-05T15:07:11.144Z,2.28
2022-10-05T15:10:37.598Z,2.00
2022-10-05T15:13:43.503Z,1.85
2022-10-05T15:16:45.591Z,2.20
2022-10-05T15:20:17.185Z,1.67
2022-10-05T15:23:40.672Z,1.63
2022-10-05T15:27:04.980Z,1.85
2022-10-05T15:30:14.292Z,1.98
2022-10-05T15:33:31.455Z,1.95
2022-10-05T15:36:41.419Z,1.63
2022-10-05T15:39:53.276Z,1.98
2022-10-05T15:43:02.918Z,1.88
2022-10-05T15:46:13.894Z,1.93
2022-10-05T15:49:24.623Z,1.80
2022-10-05T15:52:40.872Z,1.90
2022-10-05T15:55:51.098Z,2.60
2022-10-05T15:59:18.551Z,1.83
2022-10-05T16:02:33.461Z,2.00
2022-10-05T16:06:08.108Z,1.80
2022-10-05T16:09:41.081Z,1.77
2022-10-05T16:12:58.866Z,1.80
2022-10-05T16:16:24.826Z,1.95
2022-10-05T16:19:51.944Z,1.90
2022-10-05T16:23:06.567Z,2.15
2022-10-05T16:26:26.971Z,2.00
2022-10-05T16:30:02.963Z,2.25
2022-10-05T16:33:32.410Z,2.05
2022-10-05T16:36:55.907Z,2.30
2022-10-05T16:40:13.090Z,2.30
2022-10-05T16:43:52.497Z,2.35
2022-10-05T16:47:03.192Z,2.33
2022-10-05T16:50:36.989Z,2.70
2022-10-05T16:53:59.161Z,2.38
2022-10-05T16:57:06.913Z,2.90
2022-10-05T17:00:30.775Z,2.55
2022-10-05T17:03:53.865Z,2.95
2022-10-05T17:07:07.378Z,3.25
2022-10-05T17:10:14.962Z,3.13
2022-10-05T17:13:36.011Z,3.30
2022-10-05T17:17:02.523Z,2.60
2022-10-05T17:20:42.614Z,3.10
2022-10-05T17:24:30.385Z,3.05
2022-10-05T17:27:55.983Z,3.10
2022-10-05T17:31:18.333Z,2.92
2022-10-05T17:34:20.266Z,3.17
2022-10-05T17:37:27.927Z,2.80
2022-10-05T17:40:29.461Z,2.90
2022-10-05T17:43:33.447Z,3.08
2022-10-05T17:46:45.822Z,2.60
2022-10-05T17:50:31.173Z,3.20
2022-10-05T17:54:22.969Z,2.47
2022-10-05T17:57:28.011Z,2.88
2022-10-05T18:01:03.667Z,2.90
2022-10-05T18:04:11.287Z,3.15
2022-10-05T18:07:22.913Z,2.47
2022-10-05T18:10:29.894Z,3.53
2022-10-05T18:13:31.945Z,2.88
2022-10-05T18:17:03.971Z,2.20
2022-10-05T18:20:13.155Z,2.80
2022-10-05T18:23:25.649Z,2.60
2022-10-05T18:26:53.749Z,2.55
2022-10-05T18:30:20.898Z,2.55
2022-10-05T18:33:42.442Z,2.28
2022-10-05T18:36:59.248Z,2.90
2022-10-05T18:40:01.019Z,2.28
2022-10-05T18:43:17.995Z,2.40
2022-10-05T18:46:25.138Z,2.40
2022-10-05T18:49:51.757Z,2.08
2022-10-05T18:53:25.346Z,2.10
2022-10-05T18:56:49.983Z,2.20
2022-10-05T19:00:01.322Z,1.95
2022-10-05T19:03:15.721Z,2.13
2022-10-05T19:06:35.936Z,2.20
2022-10-05T19:10:02.903Z,2.20
2022-10-05T19:13:19.810Z,2.10
2022-10-05T19:16:40.823Z,1.80
2022-10-05T19:19:58.269Z,1.90
2022-10-05T19:23:00.262Z,2.10
2022-10-05T19:26:24.539Z,1.92
2022-10-05T19:29:58.709Z,2.20
2022-10-05T19:33:20.329Z,2.22
2022-10-05T19:36:40.397Z,2.20
2022-10-05T19:39:54.995Z,1.88
2022-10-05T19:43:19.014Z,1.80
2022-10-05T19:46:40.430Z,2.45
2022-10-05T19:49:43.028Z,2.05
2022-10-05T19:52:49.860Z,1.90
2022-10-05T19:55:53.144Z,1.83
2022-10-05T19:58:57.517Z,1.90
2022-10-05T20:01:59.822Z,2.45
2022-10-05T20:05:07.119Z,2.20
2022-10-05T20:08:17.008Z,2.20
2022-10-05T20:11:20.137Z,1.85
2022-10-05T20:14:32.948Z,2.10
2022-10-05T20:17:53.403Z,2.60
2022-10-05T20:20:56.608Z,2.28
2022-10-05T20:24:18.572Z,2.60
2022-10-05T20:27:42.063Z,2.28
2022-10-05T20:30:43.782Z,1.88
2022-10-05T20:33:46.003Z,1.95
2022-10-05T20:36:48.761Z,1.90
2022-10-05T20:39:51.363Z,2.08
2022-10-05T20:42:53.438Z,2.00
2022-10-05T20:45:55.488Z,1.80
2022-10-05T20:48:57.253Z,2.20
2022-10-05T20:51:59.361Z,1.80
2022-10-05T20:55:01.837Z,2.35
2022-10-05T20:58:05.685Z,1.83
2022-10-05T21:01:20.114Z,1.80
2022-10-05T21:04:24.162Z,1.75
2022-10-05T21:07:25.850Z,2.08
2022-10-05T21:10:27.640Z,1.67
2022-10-05T21:13:29.366Z,1.98
2022-10-05T21:16:31.215Z,1.83
2022-10-05T21:19:38.580Z,1.70
2022-10-05T21:22:40.416Z,1.85
2022-10-05T21:25:41.970Z,1.80
2022-10-05T21:28:43.728Z,1.50
2022-10-05T21:31:45.533Z,1.67
2022-10-05T21:34:47.248Z,1.65
2022-10-05T21:37:48.974Z,1.50
2022-10-05T21:40:51.275Z,1.77
2022-10-05T21:43:53.016Z,1.90
2022-10-05T21:46:55.611Z,1.67
2022-10-05T21:49:57.446Z,1.63
2022-10-05T21:53:02.793Z,1.85
2022-10-05T21:56:08.404Z,1.63
2022-10-05T21:59:13.271Z,1.60
2022-10-05T22:02:14.923Z,2.28
2022-10-05T22:05:16.658Z,1.63
2022-10-05T22:08:23.871Z,2.00
2022-10-05T22:11:26.413Z,1.83
2022-10-05T22:14:28.419Z,1.70
2022-10-05T22:17:31.909Z,1.75
2022-10-05T22:20:34.639Z,2.00
2022-10-05T22:23:36.281Z,1.80
2022-10-05T22:26:38.881Z,1.80
2022-10-05T22:29:41.619Z,1.70
2022-10-05T22:32:44.864Z,1.60
2022-10-05T22:35:46.684Z,1.73
2022-10-05T22:38:48.353Z,1.70
2022-10-05T22:41:50.399Z,1.50
2022-10-05T22:44:52.076Z,1.73
2022-10-05T22:47:53.604Z,1.90
2022-10-05T22:50:55.298Z,1.65
2022-10-05T22:53:56.914Z,1.92
2022-10-05T22:56:58.521Z,1.90
2022-10-05T23:00:00.003Z,1.60
2022-10-05T23:03:01.589Z,1.90
2022-10-05T23:06:06.051Z,1.90
2022-10-05T23:09:08.664Z,1.98
2022-10-05T23:12:10.350Z,2.00
2022-10-05T23:15:12.191Z,2.28
2022-10-05T23:18:15.346Z,1.83
2022-10-05T23:21:18.060Z,1.70
2022-10-05T23:24:19.777Z,1.77
2022-10-05T23:27:21.607Z,1.90
2022-10-05T23:30:23.357Z,1.85
2022-10-05T23:33:25.013Z,1.88
2022-10-05T23:36:31.441Z,1.92
2022-10-05T23:39:32.944Z,1.70
2022-10-05T23:42:34.897Z,1.83
2022-10-05T23:45:36.667Z,1.90
2022-10-05T23:48:38.786Z,2.13
2022-10-05T23:51:40.779Z,2.00
2022-10-05T23:54:42.374Z,1.85
2022-10-05T23:57:43.943Z,2.03
